sensor_id;sensor_type;location;lat;lon;timestamp;P1;durP1;ratioP1;P2;durP2;ratioP2
49502;SDS011;35409;48.776;9.204;2023-11-21T00:00:54;10.32;;;2.65;;
49502;SDS011;35409;48.776;9.204;2023-11-21T00:03:20;11.68;;;2.45;;
49502;SDS011;35409;48.776;9.204;2023-11-21T00:05:48;6.75;;;2.08;;
49502;SDS011;35409;48.776;9.204;2023-11-21T00:08:14;13.10;;;2.60;;
49502;SDS011;35409;48.776;9.204;2023-11-21T00:10:39;10.55;;;2.42;;
49502;SDS011;35409;48.776;9.204;2023-11-21T00:13:05;7.88;;;1.83;;
49502;SDS011;35409;48.776;9.204;2023-11-21T00:15:30;10.82;;;2.00;;
49502;SDS011;35409;48.776;9.204;2023-11-21T00:17:56;7.00;;;1.70;;
49502;SDS011;35409;48.776;9.204;2023-11-21T00:20:21;7.40;;;1.88;;
49502;SDS011;35409;48.776;9.204;2023-11-21T00:22:47;9.88;;;2.13;;
49502;SDS011;35409;48.776;9.204;2023-11-21T00:25:13;10.70;;;1.80;;
49502;SDS011;35409;48.776;9.204;2023-11-21T00:27:40;14.10;;;2.30;;
49502;SDS011;35409;48.776;9.204;2023-11-21T00:30:06;8.82;;;1.92;;
49502;SDS011;35409;48.776;9.204;2023-11-21T00:32:34;7.80;;;1.60;;
49502;SDS011;35409;48.776;9.204;2023-11-21T00:35:01;8.73;;;1.80;;
49502;SDS011;35409;48.776;9.204;2023-11-21T00:37:27;4.38;;;1.45;;
49502;SDS011;35409;48.776;9.204;2023-11-21T00:39:52;10.40;;;1.85;;
49502;SDS011;35409;48.776;9.204;2023-11-21T00:42:18;9.27;;;1.75;;
49502;SDS011;35409;48.776;9.204;2023-11-21T00:44:43;4.75;;;1.73;;
49502;SDS011;35409;48.776;9.204;2023-11-21T00:47:09;7.35;;;1.48;;
49502;SDS011;35409;48.776;9.204;2023-11-21T00:49:34;9.38;;;2.00;;
49502;SDS011;35409;48.776;9.204;2023-11-21T00:52:00;7.82;;;2.05;;
49502;SDS011;35409;48.776;9.204;2023-11-21T00:54:27;10.40;;;2.50;;
49502;SDS011;35409;48.776;9.204;2023-11-21T00:56:53;10.15;;;2.22;;
49502;SDS011;35409;48.776;9.204;2023-11-21T00:59:18;7.35;;;1.80;;
49502;SDS011;35409;48.776;9.204;2023-11-21T01:01:44;5.15;;;1.88;;
49502;SDS011;35409;48.776;9.204;2023-11-21T01:04:09;8.43;;;2.15;;
49502;SDS011;35409;48.776;9.204;2023-11-21T01:06:35;6.70;;;1.73;;
49502;SDS011;35409;48.776;9.204;2023-11-21T01:09:01;9.30;;;1.92;;
49502;SDS011;35409;48.776;9.204;2023-11-21T01:11:32;4.70;;;1.25;;
49502;SDS011;35409;48.776;9.204;2023-11-21T01:14:01;4.57;;;1.73;;
49502;SDS011;35409;48.776;9.204;2023-11-21T01:16:28;6.90;;;1.65;;
49502;SDS011;35409;48.776;9.204;2023-11-21T01:18:54;5.95;;;1.30;;
49502;SDS011;35409;48.776;9.204;2023-11-21T01:21:19;5.57;;;1.35;;
49502;SDS011;35409;48.776;9.204;2023-11-21T01:23:45;6.05;;;1.40;;
49502;SDS011;35409;48.776;9.204;2023-11-21T01:26:12;3.25;;;1.30;;
49502;SDS011;35409;48.776;9.204;2023-11-21T01:28:38;8.23;;;1.50;;
49502;SDS011;35409;48.776;9.204;2023-11-21T01:31:03;6.90;;;1.38;;
49502;SDS011;35409;48.776;9.204;2023-11-21T01:33:29;3.92;;;1.42;;
49502;SDS011;35409;48.776;9.204;2023-11-21T01:35:54;5.18;;;1.23;;
49502;SDS011;35409;48.776;9.204;2023-11-21T01:38:21;6.35;;;2.13;;
49502;SDS011;35409;48.776;9.204;2023-11-21T01:40:47;6.50;;;1.33;;
49502;SDS011;35409;48.776;9.204;2023-11-21T01:43:13;6.07;;;1.55;;
49502;SDS011;35409;48.776;9.204;2023-11-21T01:45:38;3.40;;;1.63;;
49502;SDS011;35409;48.776;9.204;2023-11-21T01:48:04;7.43;;;2.40;;
49502;SDS011;35409;48.776;9.204;2023-11-21T01:50:31;9.30;;;1.40;;
49502;SDS011;35409;48.776;9.204;2023-11-21T01:52:58;3.58;;;1.30;;
49502;SDS011;35409;48.776;9.204;2023-11-21T01:55:24;4.28;;;1.10;;
49502;SDS011;35409;48.776;9.204;2023-11-21T01:57:52;4.72;;;1.20;;
49502;SDS011;35409;48.776;9.204;2023-11-21T02:00:19;2.88;;;1.70;;
49502;SDS011;35409;48.776;9.204;2023-11-21T02:02:45;6.57;;;1.55;;
49502;SDS011;35409;48.776;9.204;2023-11-21T02:05:13;3.70;;;1.27;;
49502;SDS011;35409;48.776;9.204;2023-11-21T02:07:40;3.75;;;1.15;;
49502;SDS011;35409;48.776;9.204;2023-11-21T02:10:12;4.88;;;1.02;;
49502;SDS011;35409;48.776;9.204;2023-11-21T02:12:41;7.15;;;1.33;;
49502;SDS011;35409;48.776;9.204;2023-11-21T02:15:08;6.07;;;1.10;;
49502;SDS011;35409;48.776;9.204;2023-11-21T02:17:46;5.70;;;0.98;;
49502;SDS011;35409;48.776;9.204;2023-11-21T02:20:16;4.90;;;1.15;;
49502;SDS011;35409;48.776;9.204;2023-11-21T02:22:43;7.88;;;1.15;;
49502;SDS011;35409;48.776;9.204;2023-11-21T02:25:13;4.22;;;1.25;;
49502;SDS011;35409;48.776;9.204;2023-11-21T02:27:39;4.78;;;1.02;;
49502;SDS011;35409;48.776;9.204;2023-11-21T02:30:05;3.75;;;0.98;;
49502;SDS011;35409;48.776;9.204;2023-11-21T02:32:32;5.60;;;1.08;;
49502;SDS011;35409;48.776;9.204;2023-11-21T02:34:58;4.75;;;0.80;;
49502;SDS011;35409;48.776;9.204;2023-11-21T02:37:27;5.07;;;1.58;;
49502;SDS011;35409;48.776;9.204;2023-11-21T02:39:53;4.05;;;1.00;;
49502;SDS011;35409;48.776;9.204;2023-11-21T02:42:18;4.32;;;1.05;;
49502;SDS011;35409;48.776;9.204;2023-11-21T02:44:44;5.45;;;0.90;;
49502;SDS011;35409;48.776;9.204;2023-11-21T02:47:09;3.20;;;0.75;;
49502;SDS011;35409;48.776;9.204;2023-11-21T02:49:35;5.07;;;1.00;;
49502;SDS011;35409;48.776;9.204;2023-11-21T02:52:01;3.40;;;0.90;;
49502;SDS011;35409;48.776;9.204;2023-11-21T02:54:27;2.17;;;0.65;;
49502;SDS011;35409;48.776;9.204;2023-11-21T02:56:52;3.72;;;0.90;;
49502;SDS011;35409;48.776;9.204;2023-11-21T02:59:18;3.22;;;0.60;;
49502;SDS011;35409;48.776;9.204;2023-11-21T03:01:44;2.95;;;0.82;;
49502;SDS011;35409;48.776;9.204;2023-11-21T03:04:10;4.15;;;0.73;;
49502;SDS011;35409;48.776;9.204;2023-11-21T03:06:36;3.60;;;0.90;;
49502;SDS011;35409;48.776;9.204;2023-11-21T03:09:01;3.50;;;0.80;;
49502;SDS011;35409;48.776;9.204;2023-11-21T03:11:27;4.32;;;0.70;;
49502;SDS011;35409;48.776;9.204;2023-11-21T03:13:52;5.35;;;0.88;;
49502;SDS011;35409;48.776;9.204;2023-11-21T03:16:18;2.67;;;0.80;;
49502;SDS011;35409;48.776;9.204;2023-11-21T03:18:44;2.03;;;0.57;;
49502;SDS011;35409;48.776;9.204;2023-11-21T03:21:09;1.80;;;0.63;;
49502;SDS011;35409;48.776;9.204;2023-11-21T03:23:35;3.05;;;0.70;;
49502;SDS011;35409;48.776;9.204;2023-11-21T03:26:02;1.42;;;0.50;;
49502;SDS011;35409;48.776;9.204;2023-11-21T03:28:28;1.38;;;0.65;;
49502;SDS011;35409;48.776;9.204;2023-11-21T03:30:55;5.40;;;0.60;;
49502;SDS011;35409;48.776;9.204;2023-11-21T03:33:21;3.05;;;0.77;;
49502;SDS011;35409;48.776;9.204;2023-11-21T03:35:47;1.52;;;0.60;;
49502;SDS011;35409;48.776;9.204;2023-11-21T03:38:13;1.08;;;0.60;;
49502;SDS011;35409;48.776;9.204;2023-11-21T03:40:38;3.03;;;0.73;;
49502;SDS011;35409;48.776;9.204;2023-11-21T03:43:05;2.80;;;0.60;;
49502;SDS011;35409;48.776;9.204;2023-11-21T03:45:31;3.95;;;0.80;;
49502;SDS011;35409;48.776;9.204;2023-11-21T03:47:57;0.75;;;0.65;;
49502;SDS011;35409;48.776;9.204;2023-11-21T03:50:22;3.72;;;0.68;;
49502;SDS011;35409;48.776;9.204;2023-11-21T03:52:48;1.08;;;0.70;;
49502;SDS011;35409;48.776;9.204;2023-11-21T03:55:13;5.80;;;0.70;;
49502;SDS011;35409;48.776;9.204;2023-11-21T03:57:40;3.42;;;0.40;;
49502;SDS011;35409;48.776;9.204;2023-11-21T04:00:06;3.10;;;0.47;;
49502;SDS011;35409;48.776;9.204;2023-11-21T04:02:33;4.60;;;0.65;;
49502;SDS011;35409;48.776;9.204;2023-11-21T04:04:59;1.65;;;0.70;;
49502;SDS011;35409;48.776;9.204;2023-11-21T04:07:25;4.18;;;0.50;;
49502;SDS011;35409;48.776;9.204;2023-11-21T04:09:51;2.88;;;0.60;;
49502;SDS011;35409;48.776;9.204;2023-11-21T04:12:16;1.85;;;0.68;;
49502;SDS011;35409;48.776;9.204;2023-11-21T04:14:42;0.65;;;0.50;;
49502;SDS011;35409;48.776;9.204;2023-11-21T04:17:07;1.83;;;0.68;;
49502;SDS011;35409;48.776;9.204;2023-11-21T04:19:34;4.18;;;0.52;;
49502;SDS011;35409;48.776;9.204;2023-11-21T04:22:00;1.02;;;0.50;;
49502;SDS011;35409;48.776;9.204;2023-11-21T04:24:25;4.18;;;0.43;;
49502;SDS011;35409;48.776;9.204;2023-11-21T04:26:51;2.63;;;0.65;;
49502;SDS011;35409;48.776;9.204;2023-11-21T04:29:16;4.57;;;0.60;;
49502;SDS011;35409;48.776;9.204;2023-11-21T04:31:42;3.40;;;0.80;;
49502;SDS011;35409;48.776;9.204;2023-11-21T04:34:08;6.30;;;0.73;;
49502;SDS011;35409;48.776;9.204;2023-11-21T04:36:33;2.53;;;0.65;;
49502;SDS011;35409;48.776;9.204;2023-11-21T04:39:00;4.18;;;1.50;;
49502;SDS011;35409;48.776;9.204;2023-11-21T04:41:25;4.20;;;1.30;;
49502;SDS011;35409;48.776;9.204;2023-11-21T04:43:51;2.53;;;1.20;;
49502;SDS011;35409;48.776;9.204;2023-11-21T04:46:16;5.70;;;1.35;;
49502;SDS011;35409;48.776;9.204;2023-11-21T04:48:42;2.75;;;1.33;;
49502;SDS011;35409;48.776;9.204;2023-11-21T04:51:08;1.15;;;0.60;;
49502;SDS011;35409;48.776;9.204;2023-11-21T04:53:34;2.50;;;0.70;;
49502;SDS011;35409;48.776;9.204;2023-11-21T04:56:00;3.03;;;0.85;;
49502;SDS011;35409;48.776;9.204;2023-11-21T04:58:25;0.68;;;0.57;;
49502;SDS011;35409;48.776;9.204;2023-11-21T05:00:51;1.35;;;0.90;;
49502;SDS011;35409;48.776;9.204;2023-11-21T05:03:16;2.00;;;0.80;;
49502;SDS011;35409;48.776;9.204;2023-11-21T05:05:44;2.80;;;1.05;;
49502;SDS011;35409;48.776;9.204;2023-11-21T05:08:13;1.42;;;0.60;;
49502;SDS011;35409;48.776;9.204;2023-11-21T05:13:13;1.30;;;0.40;;
49502;SDS011;35409;48.776;9.204;2023-11-21T05:15:42;0.90;;;0.70;;
49502;SDS011;35409;48.776;9.204;2023-11-21T05:18:09;1.77;;;0.90;;
49502;SDS011;35409;48.776;9.204;2023-11-21T05:20:35;2.22;;;0.57;;
49502;SDS011;35409;48.776;9.204;2023-11-21T05:23:01;1.25;;;0.68;;
49502;SDS011;35409;48.776;9.204;2023-11-21T05:25:26;2.08;;;0.80;;
49502;SDS011;35409;48.776;9.204;2023-11-21T05:27:52;1.15;;;0.70;;
49502;SDS011;35409;48.776;9.204;2023-11-21T05:30:19;1.52;;;1.10;;
49502;SDS011;35409;48.776;9.204;2023-11-21T05:32:46;1.70;;;0.77;;
49502;SDS011;35409;48.776;9.204;2023-11-21T05:35:11;1.58;;;1.00;;
49502;SDS011;35409;48.776;9.204;2023-11-21T05:37:40;1.50;;;0.63;;
49502;SDS011;35409;48.776;9.204;2023-11-21T05:40:07;2.78;;;0.85;;
49502;SDS011;35409;48.776;9.204;2023-11-21T05:42:34;2.70;;;0.80;;
49502;SDS011;35409;48.776;9.204;2023-11-21T05:45:00;2.15;;;0.70;;
49502;SDS011;35409;48.776;9.204;2023-11-21T05:47:45;6.78;;;1.92;;
49502;SDS011;35409;48.776;9.204;2023-11-21T05:50:12;7.85;;;1.60;;
49502;SDS011;35409;48.776;9.204;2023-11-21T05:52:42;5.70;;;1.60;;
49502;SDS011;35409;48.776;9.204;2023-11-21T05:55:09;3.95;;;1.20;;
49502;SDS011;35409;48.776;9.204;2023-11-21T05:57:35;2.72;;;0.70;;
49502;SDS011;35409;48.776;9.204;2023-11-21T06:00:03;1.27;;;0.65;;
49502;SDS011;35409;48.776;9.204;2023-11-21T06:02:40;1.75;;;0.73;;
49502;SDS011;35409;48.776;9.204;2023-11-21T06:05:06;4.13;;;0.82;;
49502;SDS011;35409;48.776;9.204;2023-11-21T06:07:32;4.75;;;0.80;;
49502;SDS011;35409;48.776;9.204;2023-11-21T06:09:58;2.42;;;1.02;;
49502;SDS011;35409;48.776;9.204;2023-11-21T06:12:24;1.05;;;0.95;;
49502;SDS011;35409;48.776;9.204;2023-11-21T06:14:50;1.60;;;0.90;;
49502;SDS011;35409;48.776;9.204;2023-11-21T06:17:16;0.75;;;0.73;;
49502;SDS011;35409;48.776;9.204;2023-11-21T06:19:42;1.58;;;1.02;;
49502;SDS011;35409;48.776;9.204;2023-11-21T06:22:10;4.95;;;1.45;;
49502;SDS011;35409;48.776;9.204;2023-11-21T06:24:36;3.72;;;1.50;;
49502;SDS011;35409;48.776;9.204;2023-11-21T06:27:03;3.00;;;1.88;;
49502;SDS011;35409;48.776;9.204;2023-11-21T06:29:30;1.95;;;1.10;;
49502;SDS011;35409;48.776;9.204;2023-11-21T06:31:56;2.45;;;1.10;;
49502;SDS011;35409;48.776;9.204;2023-11-21T06:34:23;3.60;;;1.02;;
49502;SDS011;35409;48.776;9.204;2023-11-21T06:36:49;0.80;;;0.73;;
49502;SDS011;35409;48.776;9.204;2023-11-21T06:39:14;2.30;;;0.85;;
49502;SDS011;35409;48.776;9.204;2023-11-21T06:41:42;4.15;;;1.30;;
49502;SDS011;35409;48.776;9.204;2023-11-21T06:44:08;4.18;;;0.90;;
49502;SDS011;35409;48.776;9.204;2023-11-21T06:46:33;2.45;;;0.98;;
49502;SDS011;35409;48.776;9.204;2023-11-21T06:48:59;3.75;;;1.15;;
49502;SDS011;35409;48.776;9.204;2023-11-21T06:51:25;2.85;;;0.80;;
49502;SDS011;35409;48.776;9.204;2023-11-21T06:53:50;3.53;;;1.20;;
49502;SDS011;35409;48.776;9.204;2023-11-21T06:56:19;2.53;;;1.20;;
49502;SDS011;35409;48.776;9.204;2023-11-21T06:58:45;1.75;;;0.80;;
49502;SDS011;35409;48.776;9.204;2023-11-21T07:01:12;1.23;;;1.13;;
49502;SDS011;35409;48.776;9.204;2023-11-21T07:03:38;1.92;;;0.80;;
49502;SDS011;35409;48.776;9.204;2023-11-21T07:06:04;2.10;;;1.10;;
49502;SDS011;35409;48.776;9.204;2023-11-21T07:08:30;1.23;;;0.90;;
49502;SDS011;35409;48.776;9.204;2023-11-21T07:10:56;2.47;;;1.05;;
49502;SDS011;35409;48.776;9.204;2023-11-21T07:13:22;2.25;;;1.00;;
49502;SDS011;35409;48.776;9.204;2023-11-21T07:15:47;2.20;;;1.00;;
49502;SDS011;35409;48.776;9.204;2023-11-21T07:18:13;2.92;;;0.90;;
49502;SDS011;35409;48.776;9.204;2023-11-21T07:20:39;2.13;;;0.70;;
49502;SDS011;35409;48.776;9.204;2023-11-21T07:23:04;1.85;;;1.02;;
49502;SDS011;35409;48.776;9.204;2023-11-21T07:25:31;0.85;;;0.57;;
49502;SDS011;35409;48.776;9.204;2023-11-21T07:27:57;1.17;;;0.73;;
49502;SDS011;35409;48.776;9.204;2023-11-21T07:30:22;1.35;;;0.77;;
49502;SDS011;35409;48.776;9.204;2023-11-21T07:32:48;2.25;;;0.80;;
49502;SDS011;35409;48.776;9.204;2023-11-21T07:35:14;2.75;;;0.73;;
49502;SDS011;35409;48.776;9.204;2023-11-21T07:37:39;1.45;;;0.90;;
49502;SDS011;35409;48.776;9.204;2023-11-21T07:40:05;2.65;;;0.93;;
49502;SDS011;35409;48.776;9.204;2023-11-21T07:42:33;1.80;;;0.88;;
49502;SDS011;35409;48.776;9.204;2023-11-21T07:44:59;1.65;;;0.80;;
49502;SDS011;35409;48.776;9.204;2023-11-21T07:47:25;2.30;;;1.13;;
49502;SDS011;35409;48.776;9.204;2023-11-21T07:49:52;4.32;;;1.13;;
49502;SDS011;35409;48.776;9.204;2023-11-21T07:52:18;1.65;;;0.90;;
49502;SDS011;35409;48.776;9.204;2023-11-21T07:54:46;1.35;;;1.08;;
49502;SDS011;35409;48.776;9.204;2023-11-21T07:57:11;1.42;;;1.00;;
49502;SDS011;35409;48.776;9.204;2023-11-21T07:59:38;3.30;;;0.88;;
49502;SDS011;35409;48.776;9.204;2023-11-21T08:02:06;1.23;;;1.00;;
49502;SDS011;35409;48.776;9.204;2023-11-21T08:04:32;1.15;;;0.80;;
49502;SDS011;35409;48.776;9.204;2023-11-21T08:06:57;2.45;;;0.85;;
49502;SDS011;35409;48.776;9.204;2023-11-21T08:09:23;1.08;;;0.57;;
49502;SDS011;35409;48.776;9.204;2023-11-21T08:11:49;2.75;;;0.70;;
49502;SDS011;35409;48.776;9.204;2023-11-21T08:14:15;1.35;;;0.93;;
49502;SDS011;35409;48.776;9.204;2023-11-21T08:16:42;2.28;;;1.17;;
49502;SDS011;35409;48.776;9.204;2023-11-21T08:19:07;4.75;;;1.63;;
49502;SDS011;35409;48.776;9.204;2023-11-21T08:21:34;2.85;;;1.30;;
49502;SDS011;35409;48.776;9.204;2023-11-21T08:24:04;3.93;;;1.20;;
49502;SDS011;35409;48.776;9.204;2023-11-21T08:26:30;3.47;;;1.25;;
49502;SDS011;35409;48.776;9.204;2023-11-21T08:28:56;1.25;;;0.82;;
49502;SDS011;35409;48.776;9.204;2023-11-21T08:31:25;3.35;;;1.40;;
49502;SDS011;35409;48.776;9.204;2023-11-21T08:33:50;4.22;;;1.38;;
49502;SDS011;35409;48.776;9.204;2023-11-21T08:36:16;2.72;;;1.02;;
49502;SDS011;35409;48.776;9.204;2023-11-21T08:38:42;2.17;;;1.00;;
49502;SDS011;35409;48.776;9.204;2023-11-21T08:41:07;3.15;;;1.45;;
49502;SDS011;35409;48.776;9.204;2023-11-21T08:43:36;2.20;;;1.20;;
49502;SDS011;35409;48.776;9.204;2023-11-21T08:46:07;4.00;;;1.27;;
49502;SDS011;35409;48.776;9.204;2023-11-21T08:48:38;1.25;;;1.00;;
49502;SDS011;35409;48.776;9.204;2023-11-21T08:51:03;1.60;;;0.88;;
49502;SDS011;35409;48.776;9.204;2023-11-21T08:53:29;5.20;;;0.98;;
49502;SDS011;35409;48.776;9.204;2023-11-21T08:55:56;4.38;;;1.02;;
49502;SDS011;35409;48.776;9.204;2023-11-21T08:58:21;2.65;;;0.93;;
49502;SDS011;35409;48.776;9.204;2023-11-21T09:00:47;2.20;;;0.95;;
49502;SDS011;35409;48.776;9.204;2023-11-21T09:03:13;1.65;;;0.90;;
49502;SDS011;35409;48.776;9.204;2023-11-21T09:05:38;1.42;;;0.95;;
49502;SDS011;35409;48.776;9.204;2023-11-21T09:08:05;4.18;;;0.88;;
49502;SDS011;35409;48.776;9.204;2023-11-21T09:10:31;1.23;;;0.73;;
49502;SDS011;35409;48.776;9.204;2023-11-21T09:13:00;4.03;;;1.23;;
49502;SDS011;35409;48.776;9.204;2023-11-21T09:15:26;1.52;;;1.13;;
49502;SDS011;35409;48.776;9.204;2023-11-21T09:17:52;2.35;;;1.13;;
49502;SDS011;35409;48.776;9.204;2023-11-21T09:20:18;4.45;;;0.98;;
49502;SDS011;35409;48.776;9.204;2023-11-21T09:22:47;2.10;;;1.13;;
49502;SDS011;35409;48.776;9.204;2023-11-21T09:25:13;2.13;;;0.82;;
49502;SDS011;35409;48.776;9.204;2023-11-21T09:27:39;2.20;;;0.73;;
49502;SDS011;35409;48.776;9.204;2023-11-21T09:30:06;2.08;;;0.90;;
49502;SDS011;35409;48.776;9.204;2023-11-21T09:32:37;1.15;;;0.77;;
49502;SDS011;35409;48.776;9.204;2023-11-21T09:35:06;2.67;;;0.90;;
49502;SDS011;35409;48.776;9.204;2023-11-21T09:37:35;2.60;;;1.02;;
49502;SDS011;35409;48.776;9.204;2023-11-21T09:40:01;3.78;;;1.10;;
49502;SDS011;35409;48.776;9.204;2023-11-21T09:42:29;2.10;;;1.00;;
49502;SDS011;35409;48.776;9.204;2023-11-21T09:47:40;0.90;;;0.63;;
49502;SDS011;35409;48.776;9.204;2023-11-21T09:50:08;1.02;;;0.80;;
49502;SDS011;35409;48.776;9.204;2023-11-21T09:53:03;1.70;;;0.80;;
49502;SDS011;35409;48.776;9.204;2023-11-21T09:55:34;0.70;;;0.50;;
49502;SDS011;35409;48.776;9.204;2023-11-21T09:58:04;0.60;;;0.60;;
49502;SDS011;35409;48.776;9.204;2023-11-21T10:00:32;0.77;;;0.40;;
49502;SDS011;35409;48.776;9.204;2023-11-21T10:02:59;1.13;;;0.60;;
49502;SDS011;35409;48.776;9.204;2023-11-21T10:05:25;1.42;;;0.68;;
49502;SDS011;35409;48.776;9.204;2023-11-21T10:07:51;1.20;;;0.80;;
49502;SDS011;35409;48.776;9.204;2023-11-21T10:10:19;4.38;;;0.90;;
49502;SDS011;35409;48.776;9.204;2023-11-21T10:12:50;0.95;;;0.63;;
49502;SDS011;35409;48.776;9.204;2023-11-21T10:15:23;2.90;;;1.02;;
49502;SDS011;35409;48.776;9.204;2023-11-21T10:17:52;1.30;;;0.90;;
49502;SDS011;35409;48.776;9.204;2023-11-21T10:20:20;7.10;;;1.67;;
49502;SDS011;35409;48.776;9.204;2023-11-21T10:22:45;2.83;;;0.95;;
49502;SDS011;35409;48.776;9.204;2023-11-21T10:25:12;1.23;;;0.90;;
49502;SDS011;35409;48.776;9.204;2023-11-21T10:27:43;2.90;;;1.10;;
49502;SDS011;35409;48.776;9.204;2023-11-21T10:30:13;1.67;;;1.55;;
49502;SDS011;35409;48.776;9.204;2023-11-21T10:32:41;6.70;;;1.30;;
49502;SDS011;35409;48.776;9.204;2023-11-21T10:35:08;1.45;;;1.35;;
49502;SDS011;35409;48.776;9.204;2023-11-21T10:37:37;1.95;;;0.88;;
49502;SDS011;35409;48.776;9.204;2023-11-21T10:40:06;2.67;;;0.73;;
49502;SDS011;35409;48.776;9.204;2023-11-21T10:42:33;1.30;;;0.50;;
49502;SDS011;35409;48.776;9.204;2023-11-21T10:44:58;1.00;;;0.57;;
49502;SDS011;35409;48.776;9.204;2023-11-21T10:47:25;0.40;;;0.30;;
49502;SDS011;35409;48.776;9.204;2023-11-21T10:49:51;1.55;;;0.40;;
49502;SDS011;35409;48.776;9.204;2023-11-21T10:52:20;1.63;;;0.43;;
49502;SDS011;35409;48.776;9.204;2023-11-21T10:54:45;1.33;;;0.25;;
49502;SDS011;35409;48.776;9.204;2023-11-21T10:57:11;1.95;;;0.30;;
49502;SDS011;35409;48.776;9.204;2023-11-21T10:59:42;0.75;;;0.32;;
49502;SDS011;35409;48.776;9.204;2023-11-21T11:02:32;0.55;;;0.20;;
49502;SDS011;35409;48.776;9.204;2023-11-21T11:04:59;1.05;;;0.30;;
49502;SDS011;35409;48.776;9.204;2023-11-21T11:07:26;1.15;;;0.30;;
49502;SDS011;35409;48.776;9.204;2023-11-21T11:09:56;0.85;;;0.20;;
49502;SDS011;35409;48.776;9.204;2023-11-21T11:12:23;0.70;;;0.30;;
49502;SDS011;35409;48.776;9.204;2023-11-21T11:14:49;0.43;;;0.22;;
49502;SDS011;35409;48.776;9.204;2023-11-21T11:17:17;0.93;;;0.30;;
49502;SDS011;35409;48.776;9.204;2023-11-21T11:19:45;0.50;;;0.30;;
49502;SDS011;35409;48.776;9.204;2023-11-21T11:35:52;1.50;;;0.40;;
49502;SDS011;35409;48.776;9.204;2023-11-21T11:38:23;0.40;;;0.40;;
49502;SDS011;35409;48.776;9.204;2023-11-21T11:40:53;0.60;;;0.60;;
49502;SDS011;35409;48.776;9.204;2023-11-21T11:43:26;1.27;;;0.45;;
49502;SDS011;35409;48.776;9.204;2023-11-21T11:45:56;1.27;;;0.77;;
49502;SDS011;35409;48.776;9.204;2023-11-21T11:48:24;0.60;;;0.60;;
49502;SDS011;35409;48.776;9.204;2023-11-21T11:51:10;0.95;;;0.70;;
49502;SDS011;35409;48.776;9.204;2023-11-21T11:53:39;0.55;;;0.50;;
49502;SDS011;35409;48.776;9.204;2023-11-21T11:56:19;1.13;;;0.65;;
49502;SDS011;35409;48.776;9.204;2023-11-21T11:58:56;0.98;;;0.63;;
49502;SDS011;35409;48.776;9.204;2023-11-21T12:01:24;0.77;;;0.75;;
49502;SDS011;35409;48.776;9.204;2023-11-21T12:06:36;1.00;;;0.80;;
49502;SDS011;35409;48.776;9.204;2023-11-21T12:09:02;0.90;;;0.70;;
49502;SDS011;35409;48.776;9.204;2023-11-21T12:11:31;2.20;;;0.80;;
49502;SDS011;35409;48.776;9.204;2023-11-21T12:13:57;0.73;;;0.73;;
49502;SDS011;35409;48.776;9.204;2023-11-21T12:16:25;1.08;;;0.80;;
49502;SDS011;35409;48.776;9.204;2023-11-21T12:18:52;1.30;;;0.85;;
49502;SDS011;35409;48.776;9.204;2023-11-21T12:21:19;1.10;;;1.00;;
49502;SDS011;35409;48.776;9.204;2023-11-21T12:23:45;0.82;;;0.68;;
49502;SDS011;35409;48.776;9.204;2023-11-21T12:26:12;1.33;;;0.93;;
49502;SDS011;35409;48.776;9.204;2023-11-21T12:28:38;3.50;;;0.95;;
49502;SDS011;35409;48.776;9.204;2023-11-21T12:31:04;2.05;;;1.02;;
49502;SDS011;35409;48.776;9.204;2023-11-21T12:33:31;0.85;;;0.70;;
49502;SDS011;35409;48.776;9.204;2023-11-21T12:36:00;0.80;;;0.52;;
49502;SDS011;35409;48.776;9.204;2023-11-21T12:38:33;0.93;;;0.60;;
49502;SDS011;35409;48.776;9.204;2023-11-21T12:41:00;1.00;;;0.73;;
49502;SDS011;35409;48.776;9.204;2023-11-21T12:43:26;0.75;;;0.40;;
49502;SDS011;35409;48.776;9.204;2023-11-21T12:46:04;1.90;;;0.63;;
49502;SDS011;35409;48.776;9.204;2023-11-21T12:48:43;2.08;;;0.80;;
49502;SDS011;35409;48.776;9.204;2023-11-21T12:51:11;1.23;;;0.73;;
49502;SDS011;35409;48.776;9.204;2023-11-21T12:53:39;0.80;;;0.80;;
49502;SDS011;35409;48.776;9.204;2023-11-21T12:56:07;0.80;;;0.80;;
49502;SDS011;35409;48.776;9.204;2023-11-21T12:58:36;0.70;;;0.70;;
49502;SDS011;35409;48.776;9.204;2023-11-21T13:01:04;1.08;;;0.65;;
49502;SDS011;35409;48.776;9.204;2023-11-21T13:03:31;0.95;;;0.88;;
49502;SDS011;35409;48.776;9.204;2023-11-21T13:05:57;2.22;;;0.90;;
49502;SDS011;35409;48.776;9.204;2023-11-21T13:08:24;2.42;;;1.55;;
49502;SDS011;35409;48.776;9.204;2023-11-21T13:10:52;1.25;;;1.13;;
49502;SDS011;35409;48.776;9.204;2023-11-21T13:13:20;1.95;;;1.27;;
49502;SDS011;35409;48.776;9.204;2023-11-21T13:15:52;1.73;;;1.33;;
49502;SDS011;35409;48.776;9.204;2023-11-21T13:18:20;3.30;;;1.50;;
49502;SDS011;35409;48.776;9.204;2023-11-21T13:20:46;5.18;;;2.08;;
49502;SDS011;35409;48.776;9.204;2023-11-21T13:23:12;3.13;;;1.98;;
49502;SDS011;35409;48.776;9.204;2023-11-21T13:25:39;2.25;;;1.70;;
49502;SDS011;35409;48.776;9.204;2023-11-21T13:28:08;1.27;;;0.80;;
49502;SDS011;35409;48.776;9.204;2023-11-21T13:30:34;1.27;;;0.75;;
49502;SDS011;35409;48.776;9.204;2023-11-21T13:33:03;2.15;;;0.80;;
49502;SDS011;35409;48.776;9.204;2023-11-21T13:35:33;1.33;;;0.88;;
49502;SDS011;35409;48.776;9.204;2023-11-21T13:38:13;2.13;;;1.10;;
49502;SDS011;35409;48.776;9.204;2023-11-21T13:40:42;2.83;;;1.80;;
49502;SDS011;35409;48.776;9.204;2023-11-21T13:43:14;2.75;;;1.55;;
49502;SDS011;35409;48.776;9.204;2023-11-21T13:45:47;4.03;;;1.45;;
49502;SDS011;35409;48.776;9.204;2023-11-21T13:48:23;1.98;;;1.80;;
49502;SDS011;35409;48.776;9.204;2023-11-21T13:50:56;3.67;;;1.65;;
49502;SDS011;35409;48.776;9.204;2023-11-21T13:53:57;4.00;;;1.67;;
49502;SDS011;35409;48.776;9.204;2023-11-21T13:56:24;2.53;;;1.88;;
49502;SDS011;35409;48.776;9.204;2023-11-21T13:58:50;4.63;;;1.90;;
49502;SDS011;35409;48.776;9.204;2023-11-21T14:01:20;3.47;;;2.50;;
49502;SDS011;35409;48.776;9.204;2023-11-21T14:03:56;3.35;;;2.13;;
49502;SDS011;35409;48.776;9.204;2023-11-21T14:06:27;3.08;;;2.42;;
49502;SDS011;35409;48.776;9.204;2023-11-21T14:08:59;5.72;;;2.88;;
49502;SDS011;35409;48.776;9.204;2023-11-21T14:11:31;5.78;;;3.25;;
49502;SDS011;35409;48.776;9.204;2023-11-21T14:13:59;4.45;;;3.13;;
49502;SDS011;35409;48.776;9.204;2023-11-21T14:16:25;3.03;;;2.50;;
49502;SDS011;35409;48.776;9.204;2023-11-21T14:18:50;3.35;;;2.38;;
49502;SDS011;35409;48.776;9.204;2023-11-21T14:21:28;4.70;;;2.95;;
49502;SDS011;35409;48.776;9.204;2023-11-21T14:23:54;3.20;;;2.70;;
49502;SDS011;35409;48.776;9.204;2023-11-21T14:26:20;4.18;;;2.75;;
49502;SDS011;35409;48.776;9.204;2023-11-21T14:28:46;3.30;;;2.85;;
49502;SDS011;35409;48.776;9.204;2023-11-21T14:31:14;2.67;;;2.47;;
49502;SDS011;35409;48.776;9.204;2023-11-21T14:33:42;6.50;;;3.10;;
49502;SDS011;35409;48.776;9.204;2023-11-21T14:36:09;3.63;;;2.88;;
49502;SDS011;35409;48.776;9.204;2023-11-21T14:38:35;3.85;;;3.33;;
49502;SDS011;35409;48.776;9.204;2023-11-21T14:41:05;4.40;;;2.92;;
49502;SDS011;35409;48.776;9.204;2023-11-21T14:43:33;3.20;;;2.30;;
49502;SDS011;35409;48.776;9.204;2023-11-21T14:46:03;3.38;;;3.08;;
49502;SDS011;35409;48.776;9.204;2023-11-21T14:48:33;2.85;;;2.20;;
49502;SDS011;35409;48.776;9.204;2023-11-21T14:51:11;2.47;;;2.13;;
49502;SDS011;35409;48.776;9.204;2023-11-21T14:53:52;2.47;;;1.73;;
49502;SDS011;35409;48.776;9.204;2023-11-21T14:56:25;2.42;;;2.22;;
49502;SDS011;35409;48.776;9.204;2023-11-21T14:58:55;3.70;;;2.58;;
49502;SDS011;35409;48.776;9.204;2023-11-21T15:01:23;2.65;;;2.42;;
49502;SDS011;35409;48.776;9.204;2023-11-21T15:04:07;1.85;;;1.73;;
49502;SDS011;35409;48.776;9.204;2023-11-21T15:06:34;2.47;;;1.88;;
49502;SDS011;35409;48.776;9.204;2023-11-21T15:09:00;2.08;;;1.60;;
49502;SDS011;35409;48.776;9.204;2023-11-21T15:11:31;2.08;;;1.98;;